Airfield :







YOU CAN JOIN US ON...

 
LOGIN :

Register | Disclaimer

   EN    FR    IT 

 









Legend :    VFR   Marginal VFR   IFR   Intensive IFR   Very Intensive IFR
Visi :
Ceiling :
>= 8 km
>= 3000ft
5 to 8 km
1000 to 3000 ft
1500m to 5 km
500 to 1000 ft
800 to 1500m
200 to 500 ft
< 800m
< 200 ft
Symbols :   Thunderstorms  Fog  Heavy snow  Heavy precipitations  Wind > 20 kt






- Airport Elevation : 90 ft
- IATA code : YHU


CYHU - Montréal Saint-Hubert

CURRENT METAR :
  • 200800Z AUTO 10003KT 9SM CLR 01/M00 A3004 RMK SLP175

EXPIRED METARs :
  • 200700Z AUTO 12002KT 9SM CLR 01/00 A3005 RMK SLP177
  • 200600Z AUTO 12003KT 9SM CLR 01/00 A3004 RMK SLP175

TAF TAF CYHU
Valid from the 20 at 06:00 until the 21 at 06:00 UTC


200539Z 2006/2106 VRB03KT P6SM SKC
PROB30 2007/2014 1/2SM FG VV002
FM201400 08008KT P6SM FEW010 SCT160
FM201700 08008KT P6SM SCT200
BECMG 2023/2101 VRB03KT RMK FCST BASED ON AUTO OBS. NXT FCST BY 201200Z



MET'MAP, your aeronautical weather chart ! - Copyright ORBIFLY December 2007 - Disclaimer

ORBIFLY MET'MAP TEAM :

Programming & Development : Alexandra Zaïnal
Concept & Development : Baudouin d'Aumeries
Co-Development & Prog : Marc-Olivier Méhu
Technical & hardware support : Manuel Goepfert

Contact : metmap@orbifly.com




SOURCES & CREDITS :

   NOAA